Tiempo atmosférico en la estación meteorológica de Camaleño, Fuente De, Cantabria (1090 m.)



Fecha
DESCASC
Temp. máxima en grados centígrados (hora)
DESCASC
Temp. mínima en grados centígrados (hora)
DESCASC
Temp. media en grados centígrados
DESCASC
Racha de viento máxima en m/sg (hora)
DESCASC
Velocidad máxima media en intervalos de 10 minutos(hora)
DESCASC
Precipitaciones diarias en mm
DESCASC
Precipitaciones de 00:00 a 06:00 en mm
DESCASC
Precipitaciones de 06:00 a 12:00 en mm
DESCASC
Precipitaciones de 12:00 a 18:00 en mm
DESCASC
Precipitaciones de 18:00 a 24:00 en mm
DESCASC
14-12-2019 9.8 (14:20) 4.3 (07:50) 7.1 11.67 (23:20) 4.17 (09:30) 0 0 0 0 0
13-12-2019 12.4 (15:50) 6.8 (20:40) 9.6 16.67 (11:40) 4.72 (10:30) 32.2 17.6 13.8 0.8 0
12-12-2019 9.3 (23:40) 2.5 (03:50) 5.9 10.83 (13:20) 3.33 (13:30) 82 4.4 10.4 31.6 35.6
11-12-2019 9.3 (02:10) 3.1 (00:00) 6.2 12.78 (20:50) 3.61 (02:30) 3.4 1 0.8 0 1.6
10-12-2019 13.4 (13:20) 0.3 (00:00) 6.8 7.78 (23:50) 2.78 (13:40) 0 0 0 0 0
09-12-2019 12.3 (14:00) 0.6 (00:00) 6.5 12.22 (12:40) 8.33 (11:10) 0 0 0 0 0
08-12-2019 10.7 (16:00) 4.3 (00:00) 7.5 9.17 (18:40) 4.72 (21:20) 8.4 0 6.6 1.8 0
07-12-2019 13.8 (13:40) 3.4 (00:00) 8.6 6.39 (14:00) 2.78 (14:00) 0 0 0 0 0
06-12-2019 10.6 (14:20) 1.6 (00:00) 6.1 2.5 (12:50) 0.83 (13:50) 0 0 0 0 0
05-12-2019 5.4 (14:50) -0.2 (00:00) 2.6 3.33 (07:50) 1.39 (03:20) 0.6 0.4 0.2 0 0
04-12-2019 9.5 (13:50) -2.2 (-00:0) 3.6 3.33 (14:10) 1.39 (14:10) 0 0 0 0 0
03-12-2019 6.5 (14:20) -2.3 (-00:0) 2.1 3.89 (14:40) 1.67 (14:40) 4.8 0 0.4 4.2 0.2
02-12-2019 3.3 (13:50) -0.1 (00:00) 1.6 7.5 (14:00) 2.22 (14:10) 17 1.6 3.8 11.4 0.2
01-12-2019 6 (14:10) 0.2 (00:00) 3.1 6.67 (01:00) 2.5 (01:00) 18.6 3 1.4 6.8 7.4
30-11-2019 12.1 (06:10) 2.3 (00:00) 7.2 10.83 (06:20) 3.61 (12:20) 9.2 0.2 5.8 3.2 0
29-11-2019 13.1 (14:20) 3.4 (00:00) 8.3 6.39 (15:50) 2.22 (16:00) 0.2 0 0.2 0 0
28-11-2019 11.1 (13:00) 5 (00:00) 8.1 10.56 (13:10) 3.33 (13:10) 28.4 0.4 0 12.2 15.8
27-11-2019 10.2 (12:30) 3.6 (00:00) 6.9 11.39 (23:10) 3.33 (23:59) 5.8 0 0 4 1.8
26-11-2019 13.3 (13:00) 7.5 (00:00) 10.4 13.33 (21:30) 4.72 (05:40) 4 0 0 0 4
25-11-2019 11.7 (13:20) 4.7 (00:00) 8.2 11.94 (00:50) 3.61 (00:30) 0 0 0 0 0
24-11-2019 8.1 (22:50) 1.1 (00:00) 4.6 11.11 (13:20) 3.89 (13:20) 6.8 2 0.2 1.2 3.4
23-11-2019 4.8 (00:00) 1.3 (00:00) 3.1 19.17 (10:20) 6.11 (08:30) 62 39 6.6 13 3.4
22-11-2019 8.5 (14:10) 4 (00:00) 6.3 13.61 (18:30) 4.72 (10:30) 16.4 0.6 10.6 2.4 2.8
21-11-2019 7.8 (13:30) 1.9 (00:00) 4.9 8.33 (09:30) 3.33 (10:50) 0.8 0.4 0.4 0 0
20-11-2019 9.2 (13:30) 2 (00:00) 5.6 7.22 (04:40) 2.78 (12:40) 1.2 0.8 0.4 0 0
19-11-2019 7.6 (13:00) -2.1 (-00:0) 2.8 8.06 (14:30) 3.06 (14:30) 6.8 0 0.4 6.4 0
18-11-2019 3.8 (15:20) -0.6 (-00:0) 1.6 1.67 (00:20) 0.83 (14:00) 18 2.8 5.4 9.4 0.4
17-11-2019 6.9 (12:10) 0.2 (00:00) 3.6 8.33 (17:20) 2.78 (15:20) 41 2.6 17 15.4 6
16-11-2019 4.1 (13:10) -2.1 (-00:0) 1 11.11 (10:10) 3.61 (11:20) 8.6 0 0.6 6.8 1.2

Gráficas

Temp. máximas Temp. mínimas Temp. medias Precipitaciones Rachas de viento máximas Velocidades máximas media en intervalos de 10 minutos

Datos horarios

Fecha y hora oficial Temperatura (ºC) Velocidad del viento (km/h) Dirección del viento Racha (km/h) Dirección de racha Precipitación (mm) Presión (hPa) Tendencia (hPa) Humedad (%)
2019-12-15 23:00:00 6 6 Norte 29 Noroeste 3 -- -- 97
2019-12-15 22:00:00 6.1 5 Norte 16 Este 2.4 -- -- 93
2019-12-15 21:00:00 6.1 5 Sudeste 15 Oeste 1.6 -- -- 95
2019-12-15 20:00:00 6.4 3 Sudeste 18 Sudoeste 1.6 -- -- 93
2019-12-15 19:00:00 6.8 5 Sudoeste 23 Este 1.2 -- -- 90
2019-12-15 18:00:00 7.1 6 Sudeste 15 Nordeste 0.6 -- -- 88
2019-12-15 17:00:00 8.3 6 Sudeste 31 Oeste 0 -- -- 76
2019-12-15 16:00:00 8.9 6 Nordeste 23 Este 0 -- -- 71
2019-12-15 15:00:00 9.2 6 Sur 26 Este 0 -- -- 71
2019-12-15 14:00:00 9.5 10 Sudeste 36 Este 0 -- -- 69
2019-12-15 13:00:00 10.3 10 Este 35 Este 0 -- -- 66
2019-12-15 12:00:00 9.2 14 Este 44 Sudeste 0 -- -- 71
2019-12-15 11:00:00 9.4 8 Este 27 Este 0.2 -- -- 69
2019-12-15 10:00:00 8.6 8 Este 31 Oeste 0 -- -- 72
2019-12-15 09:00:00 8.3 10 Este 31 Sudeste 0 -- -- 73
2019-12-15 08:00:00 8.5 8 Este 36 Este 0 -- -- 72
2019-12-15 07:00:00 8.9 12 Este 41 Sur 0 -- -- 67
2019-12-15 06:00:00 8.4 9 Sudeste 30 Este 0 -- -- 71
2019-12-15 05:00:00 8.8 9 Sudeste 41 Este 0 -- -- 68
2019-12-15 04:00:00 8.9 12 Nordeste 51 Este 0 -- -- 67
2019-12-15 03:00:00 9 12 Este 37 Oeste 0 -- -- 63
2019-12-15 02:00:00 9.2 11 Este 37 Sur 0 -- -- 63
2019-12-15 01:00:00 8.7 13 Este 42 Este 0 -- -- 66
2019-12-15 00:00:00 9.3 10 Este 42 Sur 0 -- -- 65
2019-12-14 23:00:00 9.2 15 Este 40 Sur 0 -- -- 66
2019-12-14 22:00:00 9.1 12 Sudeste 37 Este 0 -- -- 66
2019-12-14 21:00:00 9.4 12 Norte 33 Norte 0 -- -- 65
2019-12-14 20:00:00 9.6 8 Sudeste 33 Sur 0 -- -- 66
2019-12-14 19:00:00 9.6 9 Sur 39 Sur 0 -- -- 63
2019-12-14 18:00:00 9.5 10 Nordeste 35 Oeste 0 -- -- 63
2019-12-14 17:00:00 9.4 6 Sudeste 20 Sudoeste 0 -- -- 67
2019-12-14 16:00:00 8.9 6 Noroeste 35 Sudoeste 0 -- -- 67
2019-12-14 15:00:00 9 5 Sudeste 24 Oeste 0 -- -- 67
2019-12-14 14:00:00 9.2 12 Sur 33 Sudoeste 0 -- -- 64
2019-12-14 13:00:00 8.8 10 Sur 35 Sur 0 -- -- 68
2019-12-14 12:00:00 7.6 6 Sudeste 23 Sudoeste 0 -- -- 72
2019-12-14 11:00:00 7.2 9 Sudoeste 29 Sudoeste 0 -- -- 71
2019-12-14 10:00:00 6.8 11 Sudoeste 33 Sudoeste 0 -- -- 71
2019-12-14 09:00:00 6.7 7 Oeste 33 Oeste 0 -- -- 66
2019-12-14 08:00:00 4.4 5 Oeste 22 Noroeste 0 -- -- 77
2019-12-14 07:00:00 5.2 0 Calma 6 Oeste 0 -- -- 74
2019-12-14 06:00:00 5.8 2 Noroeste 10 Noroeste 0 -- -- 66
2019-12-14 05:00:00 5.5 2 Oeste 6 Oeste 0 -- -- 64
2019-12-14 04:00:00 5.4 0 Calma 7 Sudoeste 0 -- -- 65
2019-12-14 03:00:00 5.1 3 Sur 8 Sudoeste 0 -- -- 75
2019-12-14 02:00:00 6.6 4 Noroeste 27 Oeste 0 -- -- 72
2019-12-14 01:00:00 7.2 6 Noroeste 32 Noroeste 0 -- -- 70
2019-12-14 00:00:00 8.5 10 Oeste 22 Oeste 0 -- -- 65
2019-12-13 23:00:00 10 8 Oeste 26 Sudoeste 0 -- -- 52
2019-12-13 22:00:00 9.9 9 Oeste 24 Oeste 0 -- -- 52
2019-12-13 21:00:00 7 3 Oeste 11 Oeste 0 -- -- 76
2019-12-13 20:00:00 7.6 0 Calma 14 Sur 0 -- -- 75
2019-12-13 19:00:00 9.1 4 Sur 24 Sur 0 -- -- 73
2019-12-13 18:00:00 11.4 6 Sur 29 Sur 0 -- -- 57
2019-12-13 17:00:00 11.5 9 Sur 26 Sur 0 -- -- 67
2019-12-13 16:00:00 12.1 10 Sur 42 Norte 0 -- -- 68
2019-12-13 15:00:00 11.7 12 Nordeste 49 Noroeste 0.2 -- -- 72
2019-12-13 14:00:00 11.7 8 Noroeste 49 Noroeste 0.2 -- -- 77
2019-12-13 13:00:00 12 17 Norte 51 Noroeste 0.4 -- -- 72
2019-12-13 12:00:00 11.9 13 Noroeste 60 Noroeste 0.2 -- -- 70
2019-12-13 11:00:00 11 12 Norte 55 Noroeste 1.4 -- -- 73
2019-12-13 10:00:00 9.8 10 Sudoeste 48 Noroeste 1 -- -- 80
2019-12-13 09:00:00 9.8 9 Sudeste 47 Sudoeste 2 -- -- 84
2019-12-13 08:00:00 9.3 8 Sudeste 45 Sur 3.6 -- -- 86
2019-12-13 07:00:00 9.7 8 Sur 31 Sur 5.6 -- -- 87
2019-12-13 06:00:00 10.3 13 Sudeste 58 Oeste 2.6 -- -- 83
2019-12-13 05:00:00 10.7 11 Este 57 Noroeste 0.6 -- -- 77
2019-12-13 04:00:00 11.9 9 Este 46 Sur 0.2 -- -- 68
2019-12-13 03:00:00 10.6 10 Sur 37 Oeste 1.8 -- -- 82
2019-12-13 02:00:00 9.9 11 Sudeste 33 Sur 7.2 -- -- 89
2019-12-13 01:00:00 9.1 7 Sur 27 Sudoeste 5.2 -- -- 94
2019-12-13 00:00:00 9.2 6 Sudeste 29 Este 6.4 -- -- 95
2019-12-12 23:00:00 9 9 Sur 32 Sudoeste 6.4 -- -- 94
2019-12-12 22:00:00 8.3 9 Sur 23 Sur 6.4 -- -- 98
2019-12-12 21:00:00 6.9 3 Oeste 8 Oeste 6.4 -- -- 100
2019-12-12 20:00:00 7 2 Sudoeste 19 Sur 5.2 -- -- 99
2019-12-12 19:00:00 7.1 6 Sudeste 18 Sudeste 4.8 -- -- 99
2019-12-12 18:00:00 6.7 3 Sudoeste 27 Sur 5.6 -- -- 97
2019-12-12 17:00:00 6.8 11 Sur 34 Sur 5.6 -- -- 93
2019-12-12 16:00:00 4.7 6 Sur 22 Sudoeste 4.6 -- -- 98
2019-12-12 15:00:00 3.7 5 Sudoeste 27 Sudeste 5.4 -- -- 97
2019-12-12 14:00:00 3.7 7 Sur 39 Sudoeste 6 -- -- 94
2019-12-12 13:00:00 4.2 10 Sur 38 Sur 4.4 -- -- 89
2019-12-12 12:00:00 4.3 8 Sur 30 Sudoeste 2.2 -- -- 88
2019-12-12 11:00:00 3.7 8 Sur 22 Sudoeste 1.8 -- -- 94
2019-12-12 10:00:00 3.1 4 Sudoeste 19 Sudoeste 2.8 -- -- 96
2019-12-12 09:00:00 2.7 4 Sudoeste 10 Oeste 1.4 -- -- 98
2019-12-12 08:00:00 2.9 4 Sudoeste 24 Sur 1.6 -- -- 96
2019-12-12 07:00:00 3.4 9 Sur 19 Sur 0.6 -- -- 94
2019-12-12 06:00:00 2.7 3 Sudoeste 8 Nordeste 0.8 -- -- 99
2019-12-12 05:00:00 2.6 2 Sur 13 Sur 1 -- -- 98
2019-12-12 04:00:00 2.5 3 Oeste 6 Sudoeste 0.8 -- -- 98
2019-12-12 03:00:00 2.8 2 Sudoeste 17 Sur 0.8 -- -- 95
2019-12-12 02:00:00 3.6 9 Sur 23 Sur 0.4 -- -- 87
2019-12-12 01:00:00 3.9 5 Sudeste 23 Sudoeste 0.6 -- -- 83
2019-12-12 00:00:00 3.7 9 Sur 23 Sudoeste 0.8 -- -- 86
2019-12-11 23:00:00 3.9 7 Sudeste 24 Sudoeste 0.6 -- -- 84
2019-12-11 22:00:00 4.6 5 Sudeste 23 Norte 0 -- -- 77
2019-12-11 21:00:00 5.1 6 Este 46 Noroeste 0.2 -- -- 67
2019-12-11 20:00:00 5.4 8 Sudoeste 34 Noroeste 0 -- -- 64
2019-12-11 19:00:00 5.5 12 Norte 45 Noroeste 0 -- -- 58
2019-12-11 18:00:00 5.7 12 Oeste 37 Noroeste 0 -- -- 58
2019-12-11 17:00:00 5.9 7 Nordeste 31 Sudoeste 0 -- -- 55
2019-12-11 16:00:00 5.9 9 Sudeste 35 Norte 0 -- -- 52
2019-12-11 15:00:00 6.2 10 Norte 33 Sur 0 -- -- 52
2019-12-11 14:00:00 6.7 10 Sudoeste 26 Sudoeste 0 -- -- 46
2019-12-11 13:00:00 5.4 7 Sudoeste 31 Sur 0 -- -- 54
2019-12-11 12:00:00 4 7 Sur 23 Sur 0 -- -- 66
2019-12-11 11:00:00 4 5 Noroeste 23 Sudoeste 0.2 -- -- 79
2019-12-11 10:00:00 3.6 6 Sudoeste 21 Oeste 0 -- -- 81
2019-12-11 09:00:00 3.1 2 Sudoeste 8 Noroeste 0.2 -- -- 96
2019-12-11 08:00:00 4 4 Sur 13 Sudeste 0.2 -- -- 93
2019-12-11 07:00:00 4.6 3 Oeste 10 Este 0.2 -- -- 94
2019-12-11 06:00:00 5.3 2 Sur 8 Oeste 0.4 -- -- 93
2019-12-11 05:00:00 6.3 3 Oeste 13 Sudeste 0.6 -- -- 89
2019-12-11 04:00:00 8.4 5 Sudoeste 21 Oeste 0 -- -- 62
2019-12-11 03:00:00 8.9 9 Oeste 26 Sudoeste 0 -- -- 54
2019-12-11 02:00:00 9.2 9 Oeste 24 Sudoeste 0 -- -- 53
2019-12-11 01:00:00 8.7 9 Oeste 18 Oeste 0 -- -- 53
2019-12-11 00:00:00 8.7 8 Oeste 28 Sudoeste 0 -- -- 54
2019-12-10 23:00:00 7.5 6 Oeste 18 Sur 0 -- -- 64
2019-12-10 22:00:00 7.9 4 Noroeste 19 Sudoeste 0 -- -- 66
2019-12-10 21:00:00 7.8 4 Oeste 20 Sudoeste 0 -- -- 64
2019-12-10 20:00:00 7.7 3 Sudeste 8 Noroeste 0 -- -- 72
2019-12-10 19:00:00 8.4 0 Calma 4 Oeste 0 -- -- 70
2019-12-10 18:00:00 9.1 0 Calma 5 Este 0 -- -- 66
2019-12-10 17:00:00 10.4 0 Calma 7 Noroeste 0 -- -- 58
2019-12-10 16:00:00 11.7 5 Oeste 22 Sur 0 -- -- 52
2019-12-10 15:00:00 11.9 6 Norte 18 Sudoeste 0 -- -- 52
2019-12-10 14:00:00 12.7 5 Sudoeste 25 Sur 0 -- -- 45
2019-12-10 13:00:00 12.6 3 Norte 11 Oeste 0 -- -- 45
2019-12-10 12:00:00 11 2 Sudoeste 6 Sudoeste 0 -- -- 44
2019-12-10 11:00:00 8.4 2 Noroeste 5 Noroeste 0 -- -- 45
2019-12-10 10:00:00 6 0 Calma 5 Noroeste 0 -- -- 53
2019-12-10 09:00:00 4.1 0 Calma 6 Noroeste 0 -- -- 56
2019-12-10 08:00:00 3 0 Calma 6 Oeste 0 -- -- 57
2019-12-10 07:00:00 2.6 0 Calma 5 Oeste 0 -- -- 61
2019-12-10 06:00:00 2.2 2 Oeste 5 Oeste 0 -- -- 61
2019-12-10 05:00:00 1.3 0 Calma 4 Oeste 0 -- -- 69
2019-12-10 04:00:00 1.3 0 Calma 5 Sur 0 -- -- 69
2019-12-10 03:00:00 1.2 0 Calma 5 Sur 0 -- -- 72
2019-12-10 02:00:00 0.6 0 Calma 3 Sur 0 -- -- 81
2019-12-10 01:00:00 0.3 2 Noroeste 6 Noroeste 0 -- -- 85
2019-12-10 00:00:00 0.6 2 Sudeste 5 Sudoeste 0 -- -- 86
2019-12-09 23:00:00 0.8 3 Noroeste 5 Noroeste 0 -- -- 90
2019-12-09 22:00:00 1.6 0 Calma 4 Sur 0 -- -- 86
2019-12-09 21:00:00 2 4 Oeste 6 Oeste 0 -- -- 85
2019-12-09 20:00:00 2.7 2 Norte 5 Noroeste 0 -- -- 82
2019-12-09 19:00:00 3.2 0 Calma 5 Oeste 0 -- -- 78
2019-12-09 18:00:00 4.4 2 Noroeste 5 Oeste 0 -- -- 76
2019-12-09 17:00:00 6 3 Noroeste 13 Sur 0 -- -- 70
2019-12-09 16:00:00 7.5 8 Sur 30 Oeste 0 -- -- 61
2019-12-09 15:00:00 9.9 11 Sudoeste 31 Noroeste 0 -- -- 49
2019-12-09 14:00:00 12.3 10 Oeste 32 Oeste 0 -- -- 29
2019-12-09 13:00:00 11.3 12 Oeste 44 Noroeste 0 -- -- 41
2019-12-09 12:00:00 9.3 18 Oeste -- -- -- -- -- 44
2019-12-09 11:00:00 -- -- -- -- -- -- -- -- --
2019-12-09 10:00:00 6.7 16 Oeste 41 Sudoeste 0 -- -- 65
2019-12-09 09:00:00 6.2 15 Oeste 35 Oeste 0 -- -- 66
2019-12-09 08:00:00 6.1 11 Oeste 26 Noroeste 0 -- -- 52
2019-12-09 07:00:00 7.2 7 Oeste 28 Sur 0 -- -- 38
2019-12-09 06:00:00 8.5 11 Sur 29 Sudoeste 0 -- -- 33
2019-12-09 05:00:00 9.2 12 Oeste 35 Noroeste 0 -- -- 29
2019-12-09 04:00:00 8.4 6 Sudoeste 30 Noroeste 0 -- -- 29
2019-12-09 03:00:00 4.2 4 Oeste 22 Sudoeste 0 -- -- 49
2019-12-09 02:00:00 5.4 4 Oeste 22 Sudoeste 0 -- -- 44
2019-12-09 01:00:00 7.3 8 Sudoeste 23 Sudoeste 0 -- -- 28
2019-12-09 00:00:00 7.6 10 Sudoeste 22 Oeste 0 -- -- 28
2019-12-08 23:00:00 8.3 10 Oeste 23 Oeste 0 -- -- 29
2019-12-08 22:00:00 9.1 10 Oeste 31 Oeste 0 -- -- 33
2019-12-08 21:00:00 8.8 13 Oeste 33 Oeste 0 -- -- 40
2019-12-08 20:00:00 8.6 14 Oeste 33 Oeste 0 -- -- 49
2019-12-08 19:00:00 8.8 12 Oeste 33 Oeste 0 -- -- 56
2019-12-08 18:00:00 7.5 5 Noroeste 15 Noroeste 0 -- -- 77
2019-12-08 17:00:00 9.3 6 Sudoeste 27 Oeste 0 -- -- 78
2019-12-08 16:00:00 10.7 10 Sudoeste 28 Sudoeste 0 -- -- 78
2019-12-08 15:00:00 9.9 2 Sudeste 7 Este 0.2 -- -- 98
2019-12-08 14:00:00 9.7 0 Calma 9 Sur 0.8 -- -- 98
2019-12-08 13:00:00 10.4 0 Calma 5 Noroeste 0.8 -- -- 99
2019-12-08 12:00:00 9.3 0 Calma 9 Oeste 2.6 -- -- 99
2019-12-08 11:00:00 9.1 2 Sur 13 Noroeste 3.8 -- -- 98
2019-12-08 10:00:00 9.2 2 Noroeste 12 Sudeste 0.2 -- -- 93
2019-12-08 09:00:00 8.8 0 Calma 11 Oeste 0 -- -- 89
2019-12-08 08:00:00 8.8 4 Oeste 9 Oeste 0 -- -- 87
2019-12-08 07:00:00 8.8 2 Sudoeste 15 Este 0 -- -- 83
2019-12-08 06:00:00 8.8 2 Sudeste 17 Este 0 -- -- 79
2019-12-08 05:00:00 6.6 4 Oeste 18 Sur 0 -- -- 85
2019-12-08 04:00:00 4.6 2 Sudoeste 5 Sudoeste 0 -- -- 87
2019-12-08 03:00:00 4.5 0 Calma 9 Oeste 0 -- -- 92
2019-12-08 02:00:00 4.6 0 Calma 7 Oeste 0 -- -- 90
2019-12-08 01:00:00 4.6 0 Calma 5 Norte 0 -- -- 91
2019-12-08 00:00:00 4.6 2 Sudoeste 5 Oeste 0 -- -- 92
2019-12-07 23:00:00 4.4 0 Calma 5 Oeste 0 -- -- 91
2019-12-07 22:00:00 4.7 2 Noroeste 5 Noroeste 0 -- -- 89
2019-12-07 21:00:00 4.6 0 Calma 4 Oeste 0 -- -- 89
2019-12-07 20:00:00 4.7 0 Calma 4 Oeste 0 -- -- 87
2019-12-07 19:00:00 5.3 2 Sudoeste 5 Oeste 0 -- -- 85
2019-12-07 18:00:00 6.6 2 Sudoeste 5 Sudoeste 0 -- -- 81
2019-12-07 17:00:00 8.5 0 Calma 6 Este 0 -- -- 74
2019-12-07 16:00:00 10.7 3 Noroeste 19 Sudoeste 0 -- -- 65
2019-12-07 15:00:00 12.8 7 Sur 22 Sudoeste 0 -- -- 57
2019-12-07 14:00:00 13.7 10 Sudoeste 23 Oeste 0 -- -- 55
2019-12-07 13:00:00 11.4 2 Sur 9 Sudoeste 0 -- -- 59
2019-12-07 12:00:00 8.3 3 Sur 5 Este 0 -- -- 72
2019-12-07 11:00:00 5.5 0 Calma 5 Sudoeste 0 -- -- 88
2019-12-07 10:00:00 4.6 2 Oeste 4 Noroeste 0 -- -- 90
2019-12-07 09:00:00 3.9 0 Calma 4 Oeste 0 -- -- 91
2019-12-07 08:00:00 3.6 0 Calma 5 Oeste 0 -- -- 91
2019-12-07 07:00:00 3.8 0 Calma 5 Oeste 0 -- -- 86
2019-12-07 06:00:00 4 0 Calma 3 Noroeste 0 -- -- 84
2019-12-07 05:00:00 4.2 2 Oeste 8 Oeste 0 -- -- 83
2019-12-07 04:00:00 3.9 2 Oeste 5 Oeste 0 -- -- 84
2019-12-07 03:00:00 3.4 2 Oeste 4 Oeste 0 -- -- 83
2019-12-07 02:00:00 3.9 3 Oeste 5 Oeste 0 -- -- 77
2019-12-07 01:00:00 3.7 2 Oeste 4 Noroeste 0 -- -- 77
2019-12-07 00:00:00 3.7 0 Calma 5 Noroeste 0 -- -- 79
2019-12-06 23:00:00 3.6 3 Oeste 5 Oeste 0 -- -- 80
2019-12-06 22:00:00 3.9 0 Calma 4 Sudoeste 0 -- -- 81
2019-12-06 21:00:00 4.2 2 Oeste 4 Oeste 0 -- -- 81
2019-12-06 20:00:00 5.5 0 Calma 4 Este 0 -- -- 78
2019-12-06 19:00:00 6.4 2 Oeste 5 Oeste 0 -- -- 81
2019-12-06 18:00:00 7 0 Calma 3 Oeste 0 -- -- 78
2019-12-06 17:00:00 8.7 0 Calma 5 Sur 0 -- -- 70
2019-12-06 16:00:00 9.7 2 Nordeste 6 Sur 0 -- -- 65
2019-12-06 15:00:00 10.4 0 Calma 4 Sudeste 0 -- -- 61
2019-12-06 14:00:00 10.1 0 Calma 6 Este 0 -- -- 61
2019-12-06 13:00:00 9.1 2 Sudeste 9 Sur 0 -- -- 63
2019-12-06 12:00:00 7.5 0 Calma 4 Este 0 -- -- 74
2019-12-06 11:00:00 5.5 0 Calma 2 Este 0 -- -- 87
2019-12-06 10:00:00 3.8 0 Calma 4 Oeste 0 -- -- 87
2019-12-06 09:00:00 2.5 0 Calma 4 Oeste 0 -- -- 89
2019-12-06 08:00:00 2.1 0 Calma 4 Noroeste 0 -- -- 90
2019-12-06 07:00:00 1.7 0 Calma 4 Oeste 0 -- -- 91
2019-12-06 06:00:00 1.6 0 Calma 4 Noroeste 0 -- -- 92
2019-12-06 05:00:00 1.8 0 Calma 4 Oeste 0 -- -- 92
2019-12-06 04:00:00 1.9 0 Calma 5 Oeste 0 -- -- 93
2019-12-06 03:00:00 2.1 0 Calma 4 Oeste 0 -- -- 92
2019-12-06 02:00:00 2.4 0 Calma 5 Sudoeste 0 -- -- 92
2019-12-06 01:00:00 2.1 0 Calma 5 Oeste 0 -- -- 94
2019-12-06 00:00:00 2 2 Sudoeste 6 Oeste 0 -- -- 96
2019-12-05 23:00:00 2 0 Calma 4 Noroeste 0 -- -- 98
2019-12-05 22:00:00 2 0 Calma 4 Oeste 0 -- -- 99
2019-12-05 21:00:00 2.3 0 Calma 4 Sudoeste 0 -- -- 98
2019-12-05 20:00:00 3.1 2 Sudoeste 6 Oeste 0 -- -- 98
2019-12-05 19:00:00 3.9 0 Calma 3 Sur 0 -- -- 99
2019-12-05 18:00:00 4.4 0 Calma 4 Sur 0 -- -- 98
2019-12-05 17:00:00 4.9 0 Calma 5 Noroeste 0 -- -- 98
2019-12-05 16:00:00 5.1 0 Calma 4 Sudeste 0 -- -- 98
2019-12-05 15:00:00 5.4 0 Calma 4 Este 0 -- -- 98
2019-12-05 14:00:00 5.2 0 Calma 6 Sudoeste 0 -- -- 100
2019-12-05 13:00:00 4.9 0 Calma 4 Oeste 0 -- -- 100
2019-12-05 12:00:00 4.3 2 Oeste 4 Sur 0 -- -- 100
2019-12-05 11:00:00 3.8 0 Calma 5 Este 0 -- -- 100
2019-12-05 10:00:00 3.6 0 Calma 9 Sudoeste 0 -- -- 100
2019-12-05 09:00:00 3.4 0 Calma 9 Sudoeste 0.2 -- -- 100
2019-12-05 08:00:00 3.5 0 Calma 12 Sur 0 -- -- 100
2019-12-05 07:00:00 2.9 0 Calma 5 Norte 0 -- -- 100
2019-12-05 06:00:00 2.5 0 Calma 6 Oeste 0 -- -- 100
2019-12-05 05:00:00 1.9 0 Calma 5 Oeste 0.2 -- -- 100
2019-12-05 04:00:00 1.4 3 Noroeste 8 Noroeste 0.2 -- -- 99
2019-12-05 03:00:00 1.1 0 Calma 6 Sur 0 -- -- 98
2019-12-05 02:00:00 0.8 3 Sur 8 Sudoeste 0 -- -- 97
2019-12-05 01:00:00 0.2 3 Noroeste 5 Oeste 0 -- -- 96
2019-12-05 00:00:00 -0.2 3 Sudoeste 8 Sudoeste 0 -- -- 96
2019-12-04 23:00:00 -0.5 2 Oeste 5 Oeste 0 -- -- 96
2019-12-04 22:00:00 -0.5 0 Calma 4 Noroeste 0 -- -- 95
2019-12-04 21:00:00 -0.1 0 Calma 4 Oeste 0 -- -- 93
2019-12-04 20:00:00 0.6 0 Calma 5 Este 0 -- -- 91
2019-12-04 19:00:00 1.2 3 Oeste 6 Oeste 0 -- -- 89
2019-12-04 18:00:00 2.3 0 Calma 4 Oeste 0 -- -- 84
2019-12-04 17:00:00 4.1 2 Sudoeste 5 Sudoeste 0 -- -- 77
2019-12-04 16:00:00 5.5 3 Sudoeste 6 Sudoeste 0 -- -- 67
2019-12-04 15:00:00 8.1 0 Calma 12 Sur 0 -- -- 59
2019-12-04 14:00:00 9.5 3 Sur 9 Sur 0 -- -- 52
2019-12-04 13:00:00 7.7 2 Sur 10 Sudoeste 0 -- -- 53
2019-12-04 12:00:00 5.2 2 Este 5 Este 0 -- -- 67
2019-12-04 11:00:00 2.8 0 Calma 6 Noroeste 0 -- -- 76
2019-12-04 10:00:00 0.5 2 Norte 5 Noroeste 0 -- -- 88
2019-12-04 09:00:00 -0.7 2 Noroeste 6 Oeste 0 -- -- 91
2019-12-04 08:00:00 -0.8 0 Calma 5 Oeste 0 -- -- 92
2019-12-04 07:00:00 -1 2 Oeste 5 Oeste 0 -- -- 89
2019-12-04 06:00:00 -0.9 0 Calma 5 Oeste 0 -- -- 85
2019-12-04 05:00:00 -1.1 2 Sudoeste 5 Oeste 0 -- -- 85
2019-12-04 04:00:00 -1.4 2 Oeste 7 Sudoeste 0 -- -- 79
2019-12-04 03:00:00 -1.5 4 Oeste 8 Sudoeste 0 -- -- 75
2019-12-04 02:00:00 -1.8 2 Sudoeste 6 Sudoeste 0 -- -- 79
2019-12-04 01:00:00 -2.2 2 Noroeste 6 Sudoeste 0 -- -- 81
2019-12-04 00:00:00 -2.1 0 Calma 5 Noroeste 0 -- -- 81
2019-12-03 23:00:00 -2.3 0 Calma 4 Oeste 0 -- -- 83
2019-12-03 22:00:00 -2.1 0 Calma 6 Oeste 0 -- -- 84
2019-12-03 21:00:00 -1.9 2 Oeste 6 Oeste 0.2 -- -- 85
2019-12-03 20:00:00 -1.8 3 Oeste 6 Oeste 0 -- -- 90
2019-12-03 19:00:00 -1.2 3 Sudoeste 5 Noroeste 0 -- -- 94
2019-12-03 18:00:00 -0.1 2 Sur 4 Sur 0 -- -- 91
2019-12-03 17:00:00 1.3 0 Calma 7 Sur 0 -- -- 82
2019-12-03 16:00:00 3.1 0 Calma 8 Sudoeste 0.4 -- -- 76
2019-12-03 15:00:00 5.3 3 Sur 14 Sudoeste 1.4 -- -- 67
2019-12-03 14:00:00 6.3 3 Sur 9 Sur 1.8 -- -- 60
2019-12-03 13:00:00 4.6 3 Sudoeste 8 Sudoeste 0.6 -- -- 63
2019-12-03 12:00:00 2.4 0 Calma 7 Este 0.4 -- -- 78
2019-12-03 11:00:00 0.8 5 Este 8 Nordeste 0 -- -- 86
2019-12-03 10:00:00 -0.4 0 Calma 4 Noroeste 0 -- -- 98
2019-12-03 09:00:00 -0.4 0 Calma 3 Oeste 0 -- -- 100
2019-12-03 08:00:00 -0.5 2 Este 7 Sudoeste 0 -- -- 99
2019-12-03 07:00:00 -0.3 0 Calma 10 Sur 0 -- -- 98
2019-12-03 06:00:00 -0.5 2 Sur 7 Noroeste 0 -- -- 100
2019-12-03 05:00:00 -0.6 2 Sur 4 Sur 0 -- -- 100
2019-12-03 04:00:00 -0.5 2 Sudoeste 8 Sudoeste 0 -- -- 100
2019-12-03 03:00:00 -0.6 0 Calma 5 Sudoeste 0 -- -- 99
2019-12-03 02:00:00 -0.7 3 Oeste 6 Sudeste 0 -- -- 99
2019-12-03 01:00:00 -0.6 2 Sur 4 Oeste 0 -- -- 98
2019-12-03 00:00:00 -0.1 4 Sur 10 Oeste 0 -- -- 95
2019-12-02 23:00:00 0 2 Norte 10 Sur 0 -- -- 95
2019-12-02 22:00:00 0.1 3 Sudoeste 9 Sur 0 -- -- 97
2019-12-02 21:00:00 0.2 4 Noroeste 15 Sur 0 -- -- 98
2019-12-02 20:00:00 0.5 6 Sudoeste 16 Sur 0.2 -- -- 97
2019-12-02 19:00:00 0.9 5 Sudeste 13 Sur 0 -- -- 97
2019-12-02 18:00:00 1.2 4 Este 16 Oeste 0.4 -- -- 98
2019-12-02 17:00:00 2.1 5 Sur 15 Oeste 1.2 -- -- 96
2019-12-02 16:00:00 2.6 6 Sur 20 Sudoeste 1.6 -- -- 96
2019-12-02 15:00:00 3.1 5 Sudeste 19 Este 1.8 -- -- 95
2019-12-02 14:00:00 3.3 7 Sudeste 27 Sur 3 -- -- 94
2019-12-02 13:00:00 2.8 0 Calma 5 Oeste 3.4 -- -- 96
2019-12-02 12:00:00 1.5 0 Calma 4 Oeste 1.8 -- -- 100
2019-12-02 11:00:00 0.7 0 Calma 3 Sur 1 -- -- 100
2019-12-02 10:00:00 0.2 0 Calma 3 Oeste 0.2 -- -- 100
2019-12-02 09:00:00 0.1 0 Calma 2 Oeste 0 -- -- 100
2019-12-02 08:00:00 0.2 0 Calma 5 Este 0.4 -- -- 100
2019-12-02 07:00:00 0.4 2 Oeste 5 Noroeste 0.4 -- -- 100
2019-12-02 06:00:00 0.5 0 Calma 4 Noroeste 0.6 -- -- 100
2019-12-02 05:00:00 0.6 2 Oeste 5 Sur 0.2 -- -- 100
2019-12-02 04:00:00 0.5 0 Calma 5 Oeste 0.2 -- -- 100
2019-12-02 03:00:00 0.4 0 Calma 5 Oeste 0.2 -- -- 100
2019-12-02 02:00:00 0.4 2 Nordeste 6 Sur 0.2 -- -- 100
2019-12-02 01:00:00 0.3 2 Sudoeste 5 Oeste 0.2 -- -- 100
2019-12-02 00:00:00 0.2 0 Calma 3 Oeste 0.4 -- -- 100
2019-12-01 23:00:00 0.2 0 Calma 3 Oeste 0 -- -- 100
2019-12-01 22:00:00 0.3 0 Calma 3 Oeste 0.6 -- -- 100
2019-12-01 21:00:00 0.5 3 Sudoeste 5 Oeste 2.2 -- -- 99
2019-12-01 20:00:00 1.1 0 Calma 4 Oeste 2 -- -- 99
2019-12-01 19:00:00 2 0 Calma 4 Sur 2.2 -- -- 98
2019-12-01 18:00:00 2.4 0 Calma 4 Nordeste 0.2 -- -- 98
2019-12-01 17:00:00 2.4 3 Norte 5 Noroeste 1.2 -- -- 96
2019-12-01 16:00:00 3.1 0 Calma 8 Noroeste 4.4 -- -- 93
2019-12-01 15:00:00 5.4 5 Sur 12 Sur 1 -- -- 90
2019-12-01 14:00:00 5.9 4 Sur 12 Sudoeste 0 -- -- 88
2019-12-01 13:00:00 5.8 0 Calma 6 Sur 0 -- -- 89
2019-12-01 12:00:00 5.3 3 Sudeste 5 Sur 0 -- -- 88
2019-12-01 11:00:00 4.1 0 Calma 2 Noroeste 0 -- -- 97
2019-12-01 10:00:00 3.3 0 Calma 3 Noroeste 0 -- -- 99
2019-12-01 09:00:00 2.8 0 Calma 3 Sudoeste 0.4 -- -- 99
2019-12-01 08:00:00 3 0 Calma 4 Oeste 0.8 -- -- 99
2019-12-01 07:00:00 3.1 0 Calma 7 Sur 0.2 -- -- 98
2019-12-01 06:00:00 3.5 2 Sudoeste 16 Noroeste 2 -- -- 96
2019-12-01 05:00:00 4.2 8 Noroeste 18 Noroeste 0.4 -- -- 88
2019-12-01 04:00:00 4.4 5 Oeste 18 Noroeste 0.2 -- -- 86
2019-12-01 03:00:00 3.9 3 Oeste 14 Sudeste 0.4 -- -- 90
2019-12-01 02:00:00 5 5 Sudeste 21 Sur 0 -- -- 81
2019-12-01 01:00:00 5.1 9 Sur 24 Sur 0 -- -- 75
2019-12-01 00:00:00 3.1 4 Sur 15 Sudoeste 0 -- -- 87
2019-11-30 23:00:00 2.3 2 Oeste 9 Noroeste 0 -- -- 91
2019-11-30 22:00:00 3 3 Sudoeste 16 Sur 0 -- -- 87
2019-11-30 21:00:00 3.1 7 Sur 18 Sudoeste 0 -- -- 88
2019-11-30 20:00:00 2.8 3 Oeste 6 Oeste 0 -- -- 97
2019-11-30 19:00:00 3.6 2 Oeste 5 Oeste 0 -- -- 95
2019-11-30 18:00:00 5.2 3 Oeste 20 Sur 1.6 -- -- 89
2019-11-30 17:00:00 7.9 6 Sur 15 Sur 0 -- -- 64
2019-11-30 16:00:00 8.3 4 Sur 21 Sur 0 -- -- 66
2019-11-30 15:00:00 7.9 9 Sur 26 Sur 0 -- -- 63
2019-11-30 14:00:00 7.7 4 Sur 8 Sudoeste 0.4 -- -- 92
2019-11-30 13:00:00 8.4 4 Sudoeste 37 Sur 1.2 -- -- 90
2019-11-30 12:00:00 8.5 11 Sur 38 Sur 4.2 -- -- 83
2019-11-30 11:00:00 11 6 Sudeste 26 Este 0 -- -- 79
2019-11-30 10:00:00 10.4 6 Sur 19 Sudoeste 0.2 -- -- 81
2019-11-30 09:00:00 9.6 4 Sudeste 18 Este 1.2 -- -- 92
2019-11-30 08:00:00 10.9 6 Sur 22 Sudoeste 0.2 -- -- 82
2019-11-30 07:00:00 11.4 9 Este 39 Este 0 -- -- 78
2019-11-30 06:00:00 11.7 10 Este 28 Este 0 -- -- 74
2019-11-30 05:00:00 11.3 12 Norte 30 Noroeste 0.2 -- -- 76
2019-11-30 04:00:00 11.5 10 Nordeste 25 Oeste 0 -- -- 74
2019-11-30 03:00:00 10.9 8 Norte 32 Oeste 0 -- -- 75
2019-11-30 02:00:00 6.9 3 Oeste 7 Sudoeste 0 -- -- 85
2019-11-30 01:00:00 6.4 3 Sudoeste 10 Oeste 0 -- -- 83
2019-11-30 00:00:00 7.7 3 Oeste 18 Sudeste 0 -- -- 74
2019-11-29 23:00:00 7.8 5 Sudoeste 20 Noroeste 0 -- -- 69
2019-11-29 22:00:00 5.7 3 Norte 8 Oeste 0 -- -- 79
2019-11-29 21:00:00 5.1 3 Oeste 8 Noroeste 0 -- -- 80
2019-11-29 20:00:00 5.2 4 Noroeste 14 Sur 0 -- -- 74
2019-11-29 19:00:00 5.1 2 Sur 8 Oeste 0 -- -- 76
2019-11-29 18:00:00 6 3 Sudoeste 6 Oeste 0 -- -- 73
2019-11-29 17:00:00 7.4 4 Oeste 12 Sur 0 -- -- 65
2019-11-29 16:00:00 9.6 8 Sur 23 Sur 0 -- -- 53
2019-11-29 15:00:00 12.4 5 Sur 12 Sur 0 -- -- 48
2019-11-29 14:00:00 12.7 2 Sudoeste 6 Sudeste 0 -- -- 57
2019-11-29 13:00:00 10.1 3 Sudeste 6 Este 0 -- -- 81
2019-11-29 12:00:00 7.4 2 Sudeste 7 Sur 0 -- -- 92
2019-11-29 11:00:00 5.6 0 Calma 5 Sudeste 0.2 -- -- 98
2019-11-29 10:00:00 5.1 2 Sudoeste 7 Noroeste 0 -- -- 100
2019-11-29 09:00:00 4.6 2 Oeste 4 Oeste 0 -- -- 100
2019-11-29 08:00:00 4.4 0 Calma 2 Sudoeste 0 -- -- 100
2019-11-29 07:00:00 3.9 0 Calma 4 Oeste 0 -- -- 100
2019-11-29 06:00:00 3.4 0 Calma 6 Sur 0 -- -- 99
2019-11-29 05:00:00 3.9 2 Noroeste 6 Este 0 -- -- 99
2019-11-29 04:00:00 4.6 0 Calma 7 Noroeste 0 -- -- 99
2019-11-29 03:00:00 5.2 4 Oeste 11 Nordeste 0 -- -- 100
2019-11-29 02:00:00 5.6 2 Noroeste 5 Norte 0 -- -- 100
2019-11-29 01:00:00 6.1 3 Sudoeste 6 Sur 0 -- -- 100
2019-11-29 00:00:00 6.5 0 Calma 6 Noroeste 0.2 -- -- 100
2019-11-28 23:00:00 6.7 2 Norte 4 Sur 0.8 -- -- 100
2019-11-28 22:00:00 6.8 0 Calma 5 Oeste 2.4 -- -- 100
2019-11-28 21:00:00 6.9 0 Calma 12 Noroeste 4.6 -- -- 99
2019-11-28 20:00:00 6.9 4 Nordeste 13 Oeste 3.6 -- -- 99
2019-11-28 19:00:00 7.4 5 Sur 34 Sur 4.2 -- -- 96
2019-11-28 18:00:00 7 4 Sudeste 13 Sur 1.6 -- -- 99
2019-11-28 17:00:00 7 5 Oeste 22 Sudoeste 2.8 -- -- 96
2019-11-28 16:00:00 8.2 6 Sur 38 Sudeste 5 -- -- 88
2019-11-28 15:00:00 8.5 6 Sudeste 17 Sur 2.4 -- -- 88
2019-11-28 14:00:00 10.5 7 Sudeste 38 Sur 0.4 -- -- 76
2019-11-28 13:00:00 11.1 9 Sudeste 33 Sudoeste 0 -- -- 68
2019-11-28 12:00:00 10.5 8 Sur 32 Sudeste 0 -- -- 70
2019-11-28 11:00:00 10.6 9 Sur 26 Sur 0 -- -- 70
2019-11-28 10:00:00 8 3 Noroeste 8 Noroeste 0 -- -- 87
2019-11-28 09:00:00 6.6 2 Sudoeste 10 Sudeste 0 -- -- 89
2019-11-28 08:00:00 6.1 0 Calma 8 Oeste 0 -- -- 91
2019-11-28 07:00:00 5.5 3 Sudoeste 8 Oeste 0 -- -- 91
2019-11-28 06:00:00 5 3 Oeste 7 Sudoeste 0 -- -- 91
2019-11-28 05:00:00 5 2 Sudoeste 10 Sudoeste 0 -- -- 90
2019-11-28 04:00:00 6 4 Sudoeste 20 Sur 0 -- -- 86
2019-11-28 03:00:00 7.3 6 Sudeste 32 Sur 0 -- -- 78
2019-11-28 02:00:00 7.4 8 Sudeste 28 Sur 0 -- -- 76
2019-11-28 01:00:00 7 8 Sur 32 Sur 0.4 -- -- 79
2019-11-28 00:00:00 7.6 12 Sudeste 41 Sur 0 -- -- 73
2019-11-27 23:00:00 6.5 5 Sudeste 25 Sudoeste 0.6 -- -- 87
2019-11-27 22:00:00 6.6 8 Sur 25 Sudeste 0.6 -- -- 83
2019-11-27 21:00:00 6.4 8 Sur 21 Sur 0.2 -- -- 82
2019-11-27 20:00:00 5.4 5 Sudoeste 17 Sudeste 0.4 -- -- 94
2019-11-27 19:00:00 5.9 4 Sudoeste 12 Sudoeste 0 -- -- 89
2019-11-27 18:00:00 6.9 7 Sur 27 Sur 0 -- -- 78
2019-11-27 17:00:00 7.6 8 Sur 27 Sur 0 -- -- 75
2019-11-27 16:00:00 6.1 4 Sudeste 11 Sudeste 0.8 -- -- 95
2019-11-27 15:00:00 6.2 6 Sur 26 Sur 2.8 -- -- 89
2019-11-27 14:00:00 8 9 Sudeste 28 Sudeste 0.4 -- -- 70
2019-11-27 06:00:00 6.3 6 Sur 28 Sur 0 -- -- 72
2019-11-27 05:00:00 6.7 9 Sudeste 24 Sudeste 0 -- -- 71
2019-11-27 04:00:00 7 9 Sudeste 35 Sur 0 -- -- 72
2019-11-27 03:00:00 7.2 8 Sur 33 Sudoeste 0 -- -- 67
2019-11-27 02:00:00 7.1 9 Sudeste 29 Sur 0 -- -- 66
2019-11-27 01:00:00 7.5 10 Sudeste 37 Sudeste 0 -- -- 64
2019-11-27 00:00:00 7.7 8 Este 28 Este 0 -- -- 66
2019-11-26 23:00:00 8.1 10 Sudeste 27 Sudoeste 0 -- -- 64
2019-11-26 22:00:00 9.1 10 Sudeste 48 Sur 0 -- -- 59
2019-11-26 21:00:00 9 11 Este 38 Oeste 0.4 -- -- 70
2019-11-26 20:00:00 8.5 12 Sudeste 47 Sudeste 3.2 -- -- 82
2019-11-26 19:00:00 9.9 10 Este 30 Sudoeste 0.4 -- -- 74
2019-11-26 18:00:00 11.6 13 Este 41 Nordeste 0 -- -- 57
2019-11-26 17:00:00 12.3 11 Este 33 Sur 0 -- -- 56
2019-11-26 16:00:00 12.7 8 Sudeste 29 Este 0 -- -- 53
2019-11-26 15:00:00 13.2 7 Sur 28 Sudeste 0 -- -- 54
2019-11-26 14:00:00 12.9 13 Este 36 Este 0 -- -- 58
2019-11-26 13:00:00 13.3 12 Este 27 Sur 0 -- -- 59
2019-11-26 12:00:00 12.7 7 Este 26 Noroeste 0 -- -- 67
2019-11-26 11:00:00 12.6 14 Noroeste 39 Noroeste 0 -- -- 64
2019-11-26 10:00:00 12.7 9 Oeste 31 Oeste 0 -- -- 66
2019-11-26 09:00:00 11.1 8 Este 33 Sur 0 -- -- 74
2019-11-26 08:00:00 11 10 Sudeste 31 Sudeste 0 -- -- 77
2019-11-26 07:00:00 11.3 10 Sudeste 38 Sudoeste 0 -- -- 73
2019-11-26 06:00:00 9 8 Sudeste 40 Sudoeste 0 -- -- 81
2019-11-26 05:00:00 11.8 7 Sudeste 36 Sudoeste 0 -- -- 67
2019-11-26 04:00:00 11.3 5 Sur 35 Sudoeste 0 -- -- 75
2019-11-26 03:00:00 7.9 6 Sudoeste 26 Sudoeste 0 -- -- 77
2019-11-26 02:00:00 8 6 Oeste 34 Sudoeste 0 -- -- 66
2019-11-26 01:00:00 9.4 13 Oeste 31 Sudoeste 0 -- -- 61
2019-11-26 00:00:00 8.3 5 Noroeste 30 Sudoeste 0 -- -- 64
2019-11-25 23:00:00 8.2 6 Sudoeste 23 Sudoeste 0 -- -- 58
2019-11-25 22:00:00 5.3 3 Norte 10 Este 0 -- -- 73
2019-11-25 21:00:00 6 2 Sur 16 Oeste 0 -- -- 73
2019-11-25 20:00:00 6.5 3 Sudoeste 10 Norte 0 -- -- 76
2019-11-25 19:00:00 6.8 4 Oeste 10 Oeste 0 -- -- 75
2019-11-25 18:00:00 8.1 6 Sudoeste 23 Sur 0 -- -- 68
2019-11-25 17:00:00 9.2 8 Sur 30 Sur 0 -- -- 64
2019-11-25 16:00:00 9.7 12 Sudoeste 37 Sudoeste 0 -- -- 63
2019-11-25 15:00:00 10.1 7 Sudoeste 34 Sudoeste 0 -- -- 62
2019-11-25 14:00:00 10.8 10 Sudoeste 28 Sur 0 -- -- 61
2019-11-25 13:00:00 11.1 12 Sur 28 Sur 0 -- -- 62
2019-11-25 12:00:00 10.1 7 Sur 23 Sudeste 0 -- -- 67
2019-11-25 11:00:00 9.5 7 Sudoeste 25 Sur 0 -- -- 68
2019-11-25 10:00:00 8.2 5 Sur 23 Sur 0 -- -- 77
2019-11-25 09:00:00 6.4 8 Sur 20 Sudoeste 0 -- -- 84
2019-11-25 08:00:00 6.6 5 Sudoeste 22 Sudoeste 0 -- -- 81
2019-11-25 07:00:00 4.7 3 Sudoeste 10 Norte 0 -- -- 91
2019-11-25 06:00:00 5 4 Sudoeste 12 Sudoeste 0 -- -- 89
2019-11-25 05:00:00 5.6 3 Sudoeste 10 Noroeste 0 -- -- 86
2019-11-25 04:00:00 5.9 2 Sudoeste 15 Sur 0 -- -- 83
2019-11-25 03:00:00 7.8 6 Sudoeste 24 Sur 0 -- -- 75
2019-11-25 02:00:00 9.2 5 Sudoeste 33 Oeste 0 -- -- 70
2019-11-25 01:00:00 9.9 10 Sur 43 Sur 0 -- -- 68
2019-11-25 00:00:00 7.5 6 Sur 31 Sur 0 -- -- 79
2019-11-24 23:00:00 8.1 11 Sudeste 33 Sudoeste 0 -- -- 78
2019-11-24 22:00:00 6.4 13 Sur 36 Sur 0 -- -- 84
2019-11-24 21:00:00 5.4 8 Sur 26 Sur 0 -- -- 92
2019-11-24 20:00:00 3.4 4 Sudoeste 20 Sudoeste 1.6 -- -- 97
2019-11-24 19:00:00 3.9 7 Sudoeste 25 Sudoeste 1.8 -- -- 94
2019-11-24 18:00:00 4.7 9 Oeste 34 Oeste 0.4 -- -- 87
2019-11-24 17:00:00 4.8 8 Sudoeste 33 Sudoeste 0.6 -- -- 85
2019-11-24 16:00:00 6.1 13 Sudoeste 35 Sudoeste 0 -- -- 71
2019-11-24 15:00:00 6.7 9 Sudoeste 30 Sur 0.2 -- -- 67
2019-11-24 14:00:00 6.3 11 Sudoeste 40 Sur 0 -- -- 68
2019-11-24 13:00:00 7.4 13 Sur 30 Sudoeste 0 -- -- 55
2019-11-24 12:00:00 5.7 2 Norte 6 Sudoeste 0 -- -- 79
2019-11-24 11:00:00 4.1 0 Calma 7 Noroeste 0 -- -- 90
2019-11-24 10:00:00 2 4 Noroeste 9 Este 0 -- -- 98
2019-11-24 09:00:00 1.2 0 Calma 7 Sudoeste 0 -- -- 98
2019-11-24 08:00:00 1.5 3 Oeste 6 Oeste 0 -- -- 97
2019-11-24 07:00:00 2.1 2 Noroeste 9 Oeste 0.2 -- -- 96
2019-11-24 06:00:00 3.1 6 Oeste 18 Sudeste 0 -- -- 86
2019-11-24 05:00:00 4.2 9 Noroeste 29 Norte 0.2 -- -- 77
2019-11-24 04:00:00 3.5 6 Oeste 26 Sur 0.2 -- -- 87
2019-11-24 03:00:00 4 8 Sudoeste 34 Oeste 0.6 -- -- 83
2019-11-24 02:00:00 3.6 5 Sur 20 Sudoeste 0.6 -- -- 86
2019-11-24 01:00:00 4.2 6 Oeste 36 Noroeste 0.4 -- -- 78
2019-11-24 00:00:00 4 12 Noroeste 39 Noroeste 0.4 -- -- 79
2019-11-23 23:00:00 2.3 4 Sudeste 14 Sur 1 -- -- 96
2019-11-23 22:00:00 1.9 4 Oeste 19 Sur 0.8 -- -- 97
2019-11-23 21:00:00 2.3 3 Este 18 Sur 0.2 -- -- 95
2019-11-23 20:00:00 2.7 6 Sudoeste 19 Sudoeste 0.4 -- -- 87
2019-11-23 19:00:00 2.1 3 Sudeste 26 Sur 0.6 -- -- 97
2019-11-23 18:00:00 1.6 4 Sudeste 13 Este 1 -- -- 100
2019-11-23 17:00:00 1.5 2 Oeste 9 Noroeste 2.6 -- -- 99
2019-11-23 16:00:00 1.7 4 Sudoeste 12 Sudeste 4 -- -- 96
2019-11-23 15:00:00 2.9 4 Sur 10 Sur 2.6 -- -- 96
2019-11-23 14:00:00 3.7 2 Nordeste 12 Sudeste 1 -- -- 94
2019-11-23 13:00:00 3.7 4 Este 28 Noroeste 1.8 -- -- 87
2019-11-23 12:00:00 4 13 Noroeste 41 Noroeste 0.8 -- -- 77
2019-11-23 11:00:00 3.7 15 Norte 69 Noroeste 0.4 -- -- 69
2019-11-23 10:00:00 3.6 12 Norte 49 Noroeste 0.8 -- -- 81
2019-11-23 09:00:00 2.8 15 Norte 62 Noroeste 1 -- -- 77
2019-11-23 08:00:00 3 13 Norte 50 Norte 1 -- -- 81
2019-11-23 07:00:00 3.2 17 Norte 67 Noroeste 2.6 -- -- 80
2019-11-23 06:00:00 3.6 17 Noroeste 59 Oeste 7 -- -- 87
2019-11-23 05:00:00 1.4 3 Sudoeste 7 Sudoeste 8 -- -- 98
2019-11-23 04:00:00 2.5 4 Noroeste 36 Sudeste 8.6 -- -- 95
2019-11-23 03:00:00 3.5 9 Sudoeste 30 Sur 8.6 -- -- 90
2019-11-23 02:00:00 3.1 4 Sudeste 12 Oeste 4.2 -- -- 98
2019-11-23 01:00:00 3.8 5 Sudoeste 22 Sur 2.6 -- -- 93
2019-11-23 00:00:00 4.8 7 Sudeste 26 Este 1.6 -- -- 87
2019-11-22 23:00:00 5.3 7 Sudeste 26 Este 0.6 -- -- 84
2019-11-22 22:00:00 6.1 10 Sudoeste 32 Noroeste 0.2 -- -- 74
2019-11-22 21:00:00 5.7 8 Sudeste 33 Sur 0.4 -- -- 76
2019-11-22 20:00:00 6.1 9 Sudeste 38 Este 0 -- -- 73
2019-11-22 19:00:00 6.4 9 Este 49 Sur 0 -- -- 71
2019-11-22 18:00:00 7.3 10 Sudeste 35 Noroeste 0 -- -- 65
2019-11-22 17:00:00 8 9 Este 40 Sudoeste 0 -- -- 62
2019-11-22 16:00:00 8.5 13 Sudeste 41 Sur 0.4 -- -- 70
2019-11-22 15:00:00 7.8 5 Este 18 Sudoeste 0.4 -- -- 85
2019-11-22 14:00:00 8 6 Este 23 Este 0.6 -- -- 85
2019-11-22 13:00:00 7.6 6 Nordeste 34 Noroeste 1 -- -- 83
2019-11-22 12:00:00 6 9 Sudeste 40 Sudoeste 4 -- -- 83
2019-11-22 11:00:00 5.9 7 Noroeste 44 Noroeste 1.2 -- -- 81
2019-11-22 10:00:00 5.6 11 Noroeste 39 Noroeste 0.8 -- -- 80
2019-11-22 09:00:00 4.5 8 Noroeste 38 Noroeste 2.4 -- -- 83
2019-11-22 08:00:00 4.5 8 Este 34 Oeste 0.8 -- -- 84
2019-11-22 07:00:00 4.4 12 Oeste 36 Sudoeste 1.4 -- -- 83
2019-11-22 06:00:00 4 6 Sudeste 31 Noroeste 0.4 -- -- 85
2019-11-22 05:00:00 4.5 11 Norte 28 Norte 0.2 -- -- 74
2019-11-22 04:00:00 4.9 10 Nordeste 31 Noroeste 0 -- -- 69
2019-11-22 03:00:00 4.8 8 Sur 25 Noroeste 0 -- -- 70
2019-11-22 02:00:00 4.6 6 Este 27 Noroeste 0 -- -- 68
2019-11-22 01:00:00 4.6 9 Norte 34 Noroeste 0 -- -- 64
2019-11-22 00:00:00 4.4 5 Nordeste 21 Noroeste 0 -- -- 70
2019-11-21 23:00:00 4.9 11 Noroeste 23 Noroeste 0 -- -- 66
2019-11-21 22:00:00 4.6 5 Este 21 Noroeste 0 -- -- 69
2019-11-21 21:00:00 4.7 4 Este 29 Sur 0 -- -- 65
2019-11-21 20:00:00 4.8 7 Sudeste 24 Sur 0 -- -- 61
2019-11-21 19:00:00 4.5 6 Sur 24 Sudoeste 0 -- -- 63
2019-11-21 18:00:00 3.9 8 Sudeste 17 Sur 0 -- -- 67
2019-11-21 17:00:00 4.9 5 Sudeste 19 Sudoeste 0 -- -- 64
2019-11-21 16:00:00 5.7 7 Sur 22 Sur 0 -- -- 57
2019-11-21 15:00:00 6.4 8 Sur 21 Sudoeste 0 -- -- 56
2019-11-21 14:00:00 7.3 6 Sur 21 Sur 0 -- -- 56
2019-11-21 13:00:00 7 5 Sur 24 Sudoeste 0 -- -- 58
2019-11-21 12:00:00 5.8 6 Sur 23 Sur 0 -- -- 61
2019-11-21 11:00:00 5.1 11 Sur 29 Sur 0 -- -- 63
2019-11-21 10:00:00 4.4 8 Sur 30 Sur 0 -- -- 68
2019-11-21 09:00:00 3.3 7 Sur 17 Sudoeste 0 -- -- 78
2019-11-21 08:00:00 3.2 5 Sudeste 17 Este 0 -- -- 85
2019-11-21 07:00:00 1.9 2 Sur 12 Nordeste 0.4 -- -- 96
2019-11-21 06:00:00 2 3 Sudoeste 6 Oeste 0 -- -- 94
2019-11-21 05:00:00 2.2 3 Sur 8 Sur 0 -- -- 91
2019-11-21 04:00:00 3.6 7 Sur 23 Sur 0 -- -- 82
2019-11-21 03:00:00 2.4 3 Oeste 18 Sur 0.2 -- -- 94
2019-11-21 02:00:00 4 3 Sudeste 21 Este 0 -- -- 83
2019-11-21 01:00:00 4 8 Nordeste 22 Noroeste 0.2 -- -- 76
2019-11-21 00:00:00 2.9 4 Noroeste 15 Este 0 -- -- 89
2019-11-20 23:00:00 3.2 4 Sudoeste 10 Nordeste 0 -- -- 86
2019-11-20 22:00:00 4.1 3 Sur 16 Sur 0 -- -- 79
2019-11-20 21:00:00 4.8 6 Noroeste 22 Este 0 -- -- 69
2019-11-20 20:00:00 4.6 4 Sudeste 17 Sur 0 -- -- 72
2019-11-20 19:00:00 4 6 Sudeste 19 Oeste 0 -- -- 79
2019-11-20 18:00:00 4.5 5 Sudeste 22 Sur 0 -- -- 79
2019-11-20 17:00:00 5.1 6 Sudeste 20 Sur 0 -- -- 75
2019-11-20 16:00:00 6.1 6 Nordeste 23 Sudoeste 0 -- -- 69
2019-11-20 15:00:00 7 8 Sudeste 23 Sur 0 -- -- 68
2019-11-20 14:00:00 8 5 Sudeste 22 Sur 0 -- -- 61
2019-11-20 13:00:00 9 6 Sudeste 25 Sur 0 -- -- 62
2019-11-20 12:00:00 7.2 6 Sudeste 23 Sur 0 -- -- 70
2019-11-20 11:00:00 5.3 8 Sudeste 21 Sur 0 -- -- 80
2019-11-20 10:00:00 2.9 3 Oeste 6 Oeste 0.2 -- -- 97
2019-11-20 09:00:00 2.3 2 Sudoeste 7 Noroeste 0 -- -- 97
2019-11-20 08:00:00 2.4 3 Sudoeste 8 Noroeste 0 -- -- 96
2019-11-20 07:00:00 3.3 5 Sudeste 17 Sur 0.2 -- -- 93
2019-11-20 06:00:00 3.1 2 Este 17 Sudoeste 0.2 -- -- 89
2019-11-20 05:00:00 4.9 9 Sur 26 Sudoeste 0.2 -- -- 82
2019-11-20 04:00:00 2 4 Oeste 9 Noroeste 0.2 -- -- 93
2019-11-20 03:00:00 2.2 2 Norte 10 Noroeste 0 -- -- 92
2019-11-20 02:00:00 2 3 Norte 21 Sur 0.2 -- -- 93
2019-11-20 01:00:00 2.2 3 Oeste 13 Oeste 0 -- -- 93
2019-11-20 00:00:00 2 0 Calma 3 Sur 0 -- -- 84
2019-11-19 23:00:00 1.5 0 Calma 6 Oeste 0 -- -- 78
2019-11-19 22:00:00 1.2 2 Oeste 4 Oeste 0 -- -- 77
2019-11-19 21:00:00 1.1 0 Calma 6 Oeste 0 -- -- 79
2019-11-19 20:00:00 0.6 2 Oeste 5 Sudoeste 0 -- -- 82
2019-11-19 19:00:00 1.1 2 Sudoeste 5 Sudoeste 0 -- -- 80
2019-11-19 18:00:00 2.1 2 Sudoeste 5 Sudoeste 0.2 -- -- 76
2019-11-19 17:00:00 4.2 4 Oeste 16 Sudoeste 0.4 -- -- 61
2019-11-19 16:00:00 5.5 4 Oeste 21 Sudoeste 1 -- -- 56
2019-11-19 15:00:00 6.1 9 Sudoeste 29 Sudoeste 1.2 -- -- 48
2019-11-19 14:00:00 7.2 5 Noroeste 24 Sudoeste 2 -- -- 50
2019-11-19 13:00:00 7.6 0 Calma 4 Nordeste 1.6 -- -- 55
2019-11-19 12:00:00 4.3 0 Calma 5 Oeste 0.4 -- -- 65
2019-11-19 11:00:00 1.2 3 Oeste 4 Oeste 0 -- -- 89
2019-11-19 10:00:00 0 0 Calma 4 Noroeste 0 -- -- 96
2019-11-19 09:00:00 -1 0 Calma 4 Sudoeste 0 -- -- 96
2019-11-19 08:00:00 -1.3 0 Calma 6 Sur 0 -- -- 96
2019-11-19 07:00:00 -1.7 0 Calma 3 Oeste 0 -- -- 97
2019-11-19 06:00:00 -1.9 0 Calma 5 Sudoeste 0 -- -- 98
2019-11-19 05:00:00 -2.1 0 Calma 6 Sudoeste 0 -- -- 98
2019-11-19 04:00:00 -1.6 0 Calma 4 Noroeste 0 -- -- 100
2019-11-19 03:00:00 -1.3 0 Calma 5 Oeste 0 -- -- 100
2019-11-19 02:00:00 -1 0 Calma 4 Sudoeste 0 -- -- 100
2019-11-19 01:00:00 -0.8 0 Calma 4 Oeste 0 -- -- 100
2019-11-19 00:00:00 -0.6 0 Calma 3 Sudoeste 0 -- -- 100
2019-11-18 23:00:00 -0.2 2 Sudoeste 5 Oeste 0 -- -- 100
2019-11-18 22:00:00 0.1 0 Calma 4 Oeste 0 -- -- 100
2019-11-18 21:00:00 0.6 2 Sudoeste 5 Sudoeste 0 -- -- 100
2019-11-18 20:00:00 0.6 0 Calma 4 Sudoeste 0.2 -- -- 99
2019-11-18 19:00:00 1.1 0 Calma 4 Oeste 0.2 -- -- 99
2019-11-18 18:00:00 1.6 0 Calma 5 Oeste 0.6 -- -- 97
2019-11-18 17:00:00 2.6 2 Sudoeste 6 Sudoeste 1.2 -- -- 94
2019-11-18 16:00:00 3.6 0 Calma 4 Oeste 1.8 -- -- 92
2019-11-18 15:00:00 3.2 2 Oeste 5 Noroeste 1.8 -- -- 94
2019-11-18 14:00:00 2.5 3 Oeste 5 Noroeste 2 -- -- 96
2019-11-18 13:00:00 1.9 2 Noroeste 4 Este 2 -- -- 98
2019-11-18 12:00:00 1.3 0 Calma 5 Oeste 1.6 -- -- 100
2019-11-18 11:00:00 0.6 0 Calma 3 Oeste 1.2 -- -- 100
2019-11-18 10:00:00 0.5 0 Calma 4 Noroeste 0.8 -- -- 100
2019-11-18 09:00:00 0.1 0 Calma 4 Este 0.4 -- -- 100
2019-11-18 08:00:00 0.1 0 Calma 4 Este 0.8 -- -- 100
2019-11-18 07:00:00 0.1 0 Calma 4 Oeste 0.6 -- -- 100
2019-11-18 06:00:00 0.1 0 Calma 4 Noroeste 0.8 -- -- 100
2019-11-18 05:00:00 0.1 0 Calma 4 Oeste 0.4 -- -- 100
2019-11-18 04:00:00 0.1 0 Calma 4 Oeste 0 -- -- 100
2019-11-18 03:00:00 0.3 0 Calma 5 Oeste 0.6 -- -- 100
2019-11-18 02:00:00 0.3 2 Oeste 5 Oeste 0.6 -- -- 100
2019-11-18 01:00:00 0.2 0 Calma 6 Sudoeste 0.4 -- -- 100
2019-11-18 00:00:00 0.2 0 Calma 5 Noroeste 0.6 -- -- 100
2019-11-17 23:00:00 0.3 2 Oeste 4 Noroeste 0.8 -- -- 100
2019-11-17 22:00:00 0.4 2 Oeste 7 Sur 0.6 -- -- 100
2019-11-17 21:00:00 0.8 2 Oeste 6 Oeste 1 -- -- 100
2019-11-17 20:00:00 0.9 0 Calma 5 Oeste 1.8 -- -- 98
2019-11-17 19:00:00 1.8 2 Oeste 19 Oeste 1.2 -- -- 95
2019-11-17 18:00:00 2 4 Oeste 30 Noroeste 1.6 -- -- 92
2019-11-17 17:00:00 3 0 Calma 16 Sur 1.2 -- -- 91
2019-11-17 16:00:00 4 4 Sudeste 28 Sur 2 -- -- 85
2019-11-17 15:00:00 5.1 9 Sur 22 Sur 2.8 -- -- 80
2019-11-17 14:00:00 5 7 Sur 19 Sur 3.2 -- -- 85
2019-11-17 13:00:00 5.5 6 Sur 16 Sudoeste 4.6 -- -- 81
2019-11-17 12:00:00 6.7 6 Sudoeste 22 Sur 4.6 -- -- 83
2019-11-17 11:00:00 4.5 4 Oeste 19 Sur 4.2 -- -- 97
2019-11-17 10:00:00 2.8 5 Sur 13 Sudoeste 2.4 -- -- 100
2019-11-17 09:00:00 1.9 2 Sur 8 Noroeste 2 -- -- 100
2019-11-17 08:00:00 1.7 3 Noroeste 9 Oeste 2.8 -- -- 100
2019-11-17 07:00:00 1.7 3 Oeste 9 Noroeste 1 -- -- 100
2019-11-17 06:00:00 1.8 3 Norte 22 Oeste 0.8 -- -- 100
2019-11-17 05:00:00 1.3 3 Norte 9 Sudoeste 0.8 -- -- 100
2019-11-17 04:00:00 0.8 2 Oeste 6 Sudoeste 0.4 -- -- 100
2019-11-17 03:00:00 0.6 2 Sudeste 5 Noroeste 0.2 -- -- 100
2019-11-17 02:00:00 0.6 0 Calma 6 Este 0.2 -- -- 100
2019-11-17 01:00:00 0.7 2 Noroeste 7 Noroeste 0.2 -- -- 100
2019-11-17 00:00:00 0.8 2 Sur 6 Oeste 0.2 -- -- 99
2019-11-16 23:00:00 0.7 0 Calma 7 Noroeste 0.2 -- -- 98
2019-11-16 22:00:00 0.8 0 Calma 9 Noroeste 0.2 -- -- 96
2019-11-16 21:00:00 1.4 5 Sudoeste 12 Oeste 0 -- -- 88
2019-11-16 20:00:00 1.5 3 Oeste 19 Sur 0.2 -- -- 86
2019-11-16 19:00:00 1.5 9 Sur 19 Sur 0.4 -- -- 85
2019-11-16 18:00:00 1.3 6 Sur 27 Sur 0.6 -- -- 88
2019-11-16 17:00:00 2 5 Sudoeste 24 Sudoeste 1.2 -- -- 80
2019-11-16 16:00:00 1.7 7 Sur 16 Sudeste 1.8 -- -- 91
2019-11-16 15:00:00 2.8 3 Noroeste 11 Oeste 2.6 -- -- 88
2019-11-16 14:00:00 2.9 4 Sudoeste 18 Noroeste 0.2 -- -- 86
2019-11-16 13:00:00 3.8 9 Sudoeste 30 Norte 0.4 -- -- 77
2019-11-16 12:00:00 3.2 12 Sudoeste 32 Noroeste 0.4 -- -- 73
2019-11-16 11:00:00 2.2 5 Sudeste 40 Noroeste 0.2 -- -- 88
2019-11-16 10:00:00 2.3 7 Noroeste 32 Noroeste 0 -- -- 82
2019-11-16 09:00:00 1.2 3 Norte 15 Norte 0 -- -- 90
2019-11-16 08:00:00 0.8 4 Norte 18 Norte 0 -- -- 91
2019-11-16 07:00:00 -1.1 4 Norte 10 Norte 0 -- -- 99
2019-11-16 06:00:00 -2 3 Norte 10 Norte 0 -- -- 99
2019-11-16 05:00:00 -1.7 0 Calma 6 Norte 0 -- -- 100
2019-11-16 04:00:00 -1.5 0 Calma 3 Norte 0 -- -- 100
2019-11-16 03:00:00 -0.6 0 Calma 4 Norte 0 -- -- 100
2019-11-16 02:00:00 -0.6 0 Calma 3 Norte 0 -- -- 100
2019-11-16 01:00:00 -0.9 2 Norte 6 Norte 0 -- -- 100
2019-11-16 00:00:00 -0.6 0 Calma 5 Norte 0 -- -- 100